<?xml version="1.0" encoding="UTF-8" standalone="no" ?>
<gpx xmlns="http://www.topografix.com/GPX/1/1" xmlns:xsi="http://www.w3.org/2001/XMLSchema-instance" xsi:schemaLocation="http://www.topografix.com/GPX/1/1 http://www.topografix.com/GPX/1/1/gpx.xsd" version="1.1" creator="VisuGPX - https://www.visugpx.com">
  <metadata>
    <name>12306000-29 nov Aydat Vichatel</name>
  </metadata>
  <trk>
    <name><![CDATA[12306000-29 nov Aydat Vichatel]]></name>
    <trkseg>
      <trkpt lat="45.66533" lon="3.00271">
        <ele>846</ele>
        <time>2020-11-29T19:08:16Z</time>
      </trkpt>
      <trkpt lat="45.66524" lon="3.00077">
        <ele>855</ele>
        <time>2020-11-29T19:08:48Z</time>
      </trkpt>
      <trkpt lat="45.66505" lon="3.00044">
        <ele>860</ele>
        <time>2020-11-29T19:08:55Z</time>
      </trkpt>
      <trkpt lat="45.66437" lon="3.0019">
        <ele>882</ele>
        <time>2020-11-29T19:09:23Z</time>
      </trkpt>
      <trkpt lat="45.664" lon="3.00034">
        <ele>890</ele>
        <time>2020-11-29T19:09:50Z</time>
      </trkpt>
      <trkpt lat="45.66124" lon="2.99976">
        <ele>924</ele>
        <time>2020-11-29T19:10:55Z</time>
      </trkpt>
      <trkpt lat="45.66018" lon="2.99954">
        <ele>933</ele>
        <time>2020-11-29T19:11:20Z</time>
      </trkpt>
      <trkpt lat="45.65952" lon="2.99968">
        <ele>939</ele>
        <time>2020-11-29T19:11:36Z</time>
      </trkpt>
      <trkpt lat="45.65695" lon="2.99932">
        <ele>957</ele>
        <time>2020-11-29T19:12:36Z</time>
      </trkpt>
      <trkpt lat="45.65539" lon="2.99976">
        <ele>966</ele>
        <time>2020-11-29T19:13:13Z</time>
      </trkpt>
      <trkpt lat="45.65382" lon="3.00004">
        <ele>969</ele>
        <time>2020-11-29T19:13:50Z</time>
      </trkpt>
      <trkpt lat="45.65196" lon="3.00019">
        <ele>966</ele>
        <time>2020-11-29T19:14:34Z</time>
      </trkpt>
      <trkpt lat="45.65019" lon="3.00048">
        <ele>961</ele>
        <time>2020-11-29T19:15:15Z</time>
      </trkpt>
      <trkpt lat="45.64868" lon="3.00113">
        <ele>945</ele>
        <time>2020-11-29T19:15:52Z</time>
      </trkpt>
      <trkpt lat="45.64908" lon="2.99867">
        <ele>949</ele>
        <time>2020-11-29T19:16:34Z</time>
      </trkpt>
      <trkpt lat="45.64888" lon="2.99333">
        <ele>951</ele>
        <time>2020-11-29T19:18:01Z</time>
      </trkpt>
      <trkpt lat="45.64832" lon="2.99167">
        <ele>946</ele>
        <time>2020-11-29T19:18:31Z</time>
      </trkpt>
      <trkpt lat="45.64741" lon="2.98936">
        <ele>952</ele>
        <time>2020-11-29T19:19:14Z</time>
      </trkpt>
      <trkpt lat="45.64731" lon="2.98604">
        <ele>958</ele>
        <time>2020-11-29T19:20:08Z</time>
      </trkpt>
      <trkpt lat="45.64782" lon="2.98279">
        <ele>969</ele>
        <time>2020-11-29T19:21:03Z</time>
      </trkpt>
      <trkpt lat="45.64797" lon="2.97839">
        <ele>981</ele>
        <time>2020-11-29T19:22:15Z</time>
      </trkpt>
      <trkpt lat="45.64827" lon="2.97464">
        <ele>978</ele>
        <time>2020-11-29T19:23:16Z</time>
      </trkpt>
      <trkpt lat="45.6463" lon="2.9706">
        <ele>1001</ele>
        <time>2020-11-29T19:24:37Z</time>
      </trkpt>
      <trkpt lat="45.64787" lon="2.96988">
        <ele>986</ele>
        <time>2020-11-29T19:25:15Z</time>
      </trkpt>
      <trkpt lat="45.64928" lon="2.96793">
        <ele>960</ele>
        <time>2020-11-29T19:26:01Z</time>
      </trkpt>
      <trkpt lat="45.6509" lon="2.96684">
        <ele>950</ele>
        <time>2020-11-29T19:26:43Z</time>
      </trkpt>
      <trkpt lat="45.65241" lon="2.96287">
        <ele>952</ele>
        <time>2020-11-29T19:27:57Z</time>
      </trkpt>
      <trkpt lat="45.65418" lon="2.96403">
        <ele>955</ele>
        <time>2020-11-29T19:28:42Z</time>
      </trkpt>
      <trkpt lat="45.65569" lon="2.96518">
        <ele>940</ele>
        <time>2020-11-29T19:29:22Z</time>
      </trkpt>
      <trkpt lat="45.65633" lon="2.96495">
        <ele>940</ele>
        <time>2020-11-29T19:29:37Z</time>
      </trkpt>
      <trkpt lat="45.65722" lon="2.96229">
        <ele>961</ele>
        <time>2020-11-29T19:30:26Z</time>
      </trkpt>
      <trkpt lat="45.6579" lon="2.96222">
        <ele>965</ele>
        <time>2020-11-29T19:30:42Z</time>
      </trkpt>
      <trkpt lat="45.65809" lon="2.96265">
        <ele>962</ele>
        <time>2020-11-29T19:30:50Z</time>
      </trkpt>
      <trkpt lat="45.65842" lon="2.96251">
        <ele>969</ele>
        <time>2020-11-29T19:30:58Z</time>
      </trkpt>
      <trkpt lat="45.65842" lon="2.96216">
        <ele>974</ele>
        <time>2020-11-29T19:31:04Z</time>
      </trkpt>
      <trkpt lat="45.6574" lon="2.96087">
        <ele>976</ele>
        <time>2020-11-29T19:31:35Z</time>
      </trkpt>
      <trkpt lat="45.65729" lon="2.95981">
        <ele>982</ele>
        <time>2020-11-29T19:31:53Z</time>
      </trkpt>
      <trkpt lat="45.65777" lon="2.95692">
        <ele>1000</ele>
        <time>2020-11-29T19:32:41Z</time>
      </trkpt>
      <trkpt lat="45.6579" lon="2.95578">
        <ele>1007</ele>
        <time>2020-11-29T19:33:00Z</time>
      </trkpt>
      <trkpt lat="45.65837" lon="2.9539">
        <ele>1005</ele>
        <time>2020-11-29T19:33:33Z</time>
      </trkpt>
      <trkpt lat="45.65898" lon="2.95301">
        <ele>1009</ele>
        <time>2020-11-29T19:33:53Z</time>
      </trkpt>
      <trkpt lat="45.65979" lon="2.95299">
        <ele>1023</ele>
        <time>2020-11-29T19:34:12Z</time>
      </trkpt>
      <trkpt lat="45.66088" lon="2.95202">
        <ele>1033</ele>
        <time>2020-11-29T19:34:42Z</time>
      </trkpt>
      <trkpt lat="45.66228" lon="2.95146">
        <ele>1040</ele>
        <time>2020-11-29T19:35:16Z</time>
      </trkpt>
      <trkpt lat="45.66311" lon="2.9514">
        <ele>1043</ele>
        <time>2020-11-29T19:35:35Z</time>
      </trkpt>
      <trkpt lat="45.66393" lon="2.95165">
        <ele>1044</ele>
        <time>2020-11-29T19:35:55Z</time>
      </trkpt>
      <trkpt lat="45.6644" lon="2.95181">
        <ele>1044</ele>
        <time>2020-11-29T19:36:06Z</time>
      </trkpt>
      <trkpt lat="45.6645" lon="2.95197">
        <ele>1045</ele>
        <time>2020-11-29T19:36:10Z</time>
      </trkpt>
      <trkpt lat="45.66466" lon="2.95191">
        <ele>1043</ele>
        <time>2020-11-29T19:36:14Z</time>
      </trkpt>
      <trkpt lat="45.66484" lon="2.95166">
        <ele>1040</ele>
        <time>2020-11-29T19:36:20Z</time>
      </trkpt>
      <trkpt lat="45.66592" lon="2.95276">
        <ele>1039</ele>
        <time>2020-11-29T19:36:50Z</time>
      </trkpt>
      <trkpt lat="45.6668" lon="2.95328">
        <ele>1035</ele>
        <time>2020-11-29T19:37:13Z</time>
      </trkpt>
      <trkpt lat="45.66769" lon="2.95342">
        <ele>1024</ele>
        <time>2020-11-29T19:37:34Z</time>
      </trkpt>
      <trkpt lat="45.66856" lon="2.95283">
        <ele>1016</ele>
        <time>2020-11-29T19:37:56Z</time>
      </trkpt>
      <trkpt lat="45.66945" lon="2.9521">
        <ele>1009</ele>
        <time>2020-11-29T19:38:20Z</time>
      </trkpt>
      <trkpt lat="45.67042" lon="2.95105">
        <ele>1004</ele>
        <time>2020-11-29T19:38:48Z</time>
      </trkpt>
      <trkpt lat="45.67307" lon="2.95324">
        <ele>979</ele>
        <time>2020-11-29T19:40:00Z</time>
      </trkpt>
      <trkpt lat="45.67148" lon="2.9566">
        <ele>975</ele>
        <time>2020-11-29T19:41:06Z</time>
      </trkpt>
      <trkpt lat="45.67354" lon="2.95669">
        <ele>993</ele>
        <time>2020-11-29T19:41:54Z</time>
      </trkpt>
      <trkpt lat="45.67425" lon="2.95566">
        <ele>994</ele>
        <time>2020-11-29T19:42:18Z</time>
      </trkpt>
      <trkpt lat="45.67468" lon="2.95522">
        <ele>995</ele>
        <time>2020-11-29T19:42:30Z</time>
      </trkpt>
      <trkpt lat="45.67539" lon="2.95509">
        <ele>1000</ele>
        <time>2020-11-29T19:42:47Z</time>
      </trkpt>
      <trkpt lat="45.67637" lon="2.95585">
        <ele>1022</ele>
        <time>2020-11-29T19:43:13Z</time>
      </trkpt>
      <trkpt lat="45.67748" lon="2.95608">
        <ele>1024</ele>
        <time>2020-11-29T19:43:39Z</time>
      </trkpt>
      <trkpt lat="45.67847" lon="2.95666">
        <ele>1024</ele>
        <time>2020-11-29T19:44:04Z</time>
      </trkpt>
      <trkpt lat="45.67916" lon="2.95736">
        <ele>1024</ele>
        <time>2020-11-29T19:44:24Z</time>
      </trkpt>
      <trkpt lat="45.67965" lon="2.95844">
        <ele>1033</ele>
        <time>2020-11-29T19:44:45Z</time>
      </trkpt>
      <trkpt lat="45.67972" lon="2.9609">
        <ele>1041</ele>
        <time>2020-11-29T19:45:25Z</time>
      </trkpt>
      <trkpt lat="45.67964" lon="2.96124">
        <ele>1041</ele>
        <time>2020-11-29T19:45:31Z</time>
      </trkpt>
      <trkpt lat="45.67982" lon="2.96287">
        <ele>1022</ele>
        <time>2020-11-29T19:45:58Z</time>
      </trkpt>
      <trkpt lat="45.67989" lon="2.96386">
        <ele>1011</ele>
        <time>2020-11-29T19:46:14Z</time>
      </trkpt>
      <trkpt lat="45.68053" lon="2.96463">
        <ele>993</ele>
        <time>2020-11-29T19:46:34Z</time>
      </trkpt>
      <trkpt lat="45.68098" lon="2.96512">
        <ele>984</ele>
        <time>2020-11-29T19:46:47Z</time>
      </trkpt>
      <trkpt lat="45.68099" lon="2.96554">
        <ele>981</ele>
        <time>2020-11-29T19:46:54Z</time>
      </trkpt>
      <trkpt lat="45.68118" lon="2.96579">
        <ele>975</ele>
        <time>2020-11-29T19:47:00Z</time>
      </trkpt>
      <trkpt lat="45.68134" lon="2.96604">
        <ele>970</ele>
        <time>2020-11-29T19:47:05Z</time>
      </trkpt>
      <trkpt lat="45.68139" lon="2.96655">
        <ele>965</ele>
        <time>2020-11-29T19:47:14Z</time>
      </trkpt>
      <trkpt lat="45.68158" lon="2.96641">
        <ele>964</ele>
        <time>2020-11-29T19:47:19Z</time>
      </trkpt>
      <trkpt lat="45.68179" lon="2.96627">
        <ele>965</ele>
        <time>2020-11-29T19:47:24Z</time>
      </trkpt>
      <trkpt lat="45.68193" lon="2.96576">
        <ele>966</ele>
        <time>2020-11-29T19:47:33Z</time>
      </trkpt>
      <trkpt lat="45.68193" lon="2.96515">
        <ele>965</ele>
        <time>2020-11-29T19:47:43Z</time>
      </trkpt>
      <trkpt lat="45.68217" lon="2.96486">
        <ele>962</ele>
        <time>2020-11-29T19:47:50Z</time>
      </trkpt>
      <trkpt lat="45.6824" lon="2.96461">
        <ele>959</ele>
        <time>2020-11-29T19:47:57Z</time>
      </trkpt>
      <trkpt lat="45.6826" lon="2.96426">
        <ele>957</ele>
        <time>2020-11-29T19:48:04Z</time>
      </trkpt>
      <trkpt lat="45.68258" lon="2.96371">
        <ele>955</ele>
        <time>2020-11-29T19:48:13Z</time>
      </trkpt>
      <trkpt lat="45.68275" lon="2.9631">
        <ele>956</ele>
        <time>2020-11-29T19:48:24Z</time>
      </trkpt>
      <trkpt lat="45.68262" lon="2.96156">
        <ele>954</ele>
        <time>2020-11-29T19:48:49Z</time>
      </trkpt>
      <trkpt lat="45.68267" lon="2.9612">
        <ele>955</ele>
        <time>2020-11-29T19:48:55Z</time>
      </trkpt>
      <trkpt lat="45.68278" lon="2.96119">
        <ele>956</ele>
        <time>2020-11-29T19:48:58Z</time>
      </trkpt>
      <trkpt lat="45.6828" lon="2.96094">
        <ele>957</ele>
        <time>2020-11-29T19:49:02Z</time>
      </trkpt>
      <trkpt lat="45.68295" lon="2.9607">
        <ele>960</ele>
        <time>2020-11-29T19:49:07Z</time>
      </trkpt>
      <trkpt lat="45.68315" lon="2.96038">
        <ele>963</ele>
        <time>2020-11-29T19:49:14Z</time>
      </trkpt>
      <trkpt lat="45.6832" lon="2.96023">
        <ele>964</ele>
        <time>2020-11-29T19:49:17Z</time>
      </trkpt>
      <trkpt lat="45.68322" lon="2.95935">
        <ele>964</ele>
        <time>2020-11-29T19:49:31Z</time>
      </trkpt>
      <trkpt lat="45.68322" lon="2.959">
        <ele>964</ele>
        <time>2020-11-29T19:49:37Z</time>
      </trkpt>
      <trkpt lat="45.68319" lon="2.95847">
        <ele>962</ele>
        <time>2020-11-29T19:49:46Z</time>
      </trkpt>
      <trkpt lat="45.68319" lon="2.95821">
        <ele>962</ele>
        <time>2020-11-29T19:49:50Z</time>
      </trkpt>
      <trkpt lat="45.68334" lon="2.95828">
        <ele>963</ele>
        <time>2020-11-29T19:49:54Z</time>
      </trkpt>
      <trkpt lat="45.68343" lon="2.95788">
        <ele>965</ele>
        <time>2020-11-29T19:50:01Z</time>
      </trkpt>
      <trkpt lat="45.68354" lon="2.95761">
        <ele>967</ele>
        <time>2020-11-29T19:50:06Z</time>
      </trkpt>
      <trkpt lat="45.68375" lon="2.95683">
        <ele>967</ele>
        <time>2020-11-29T19:50:19Z</time>
      </trkpt>
      <trkpt lat="45.68397" lon="2.95631">
        <ele>968</ele>
        <time>2020-11-29T19:50:29Z</time>
      </trkpt>
      <trkpt lat="45.68407" lon="2.95593">
        <ele>968</ele>
        <time>2020-11-29T19:50:36Z</time>
      </trkpt>
      <trkpt lat="45.68479" lon="2.95497">
        <ele>966</ele>
        <time>2020-11-29T19:50:59Z</time>
      </trkpt>
      <trkpt lat="45.68513" lon="2.95496">
        <ele>965</ele>
        <time>2020-11-29T19:51:07Z</time>
      </trkpt>
      <trkpt lat="45.68544" lon="2.95506">
        <ele>964</ele>
        <time>2020-11-29T19:51:14Z</time>
      </trkpt>
      <trkpt lat="45.68571" lon="2.95554">
        <ele>968</ele>
        <time>2020-11-29T19:51:24Z</time>
      </trkpt>
      <trkpt lat="45.68576" lon="2.95606">
        <ele>975</ele>
        <time>2020-11-29T19:51:33Z</time>
      </trkpt>
      <trkpt lat="45.6864" lon="2.95809">
        <ele>1006</ele>
        <time>2020-11-29T19:52:09Z</time>
      </trkpt>
      <trkpt lat="45.6868" lon="2.9583">
        <ele>1008</ele>
        <time>2020-11-29T19:52:19Z</time>
      </trkpt>
      <trkpt lat="45.68759" lon="2.95868">
        <ele>1006</ele>
        <time>2020-11-29T19:52:39Z</time>
      </trkpt>
      <trkpt lat="45.68815" lon="2.95935">
        <ele>1011</ele>
        <time>2020-11-29T19:52:56Z</time>
      </trkpt>
      <trkpt lat="45.68846" lon="2.96014">
        <ele>1021</ele>
        <time>2020-11-29T19:53:10Z</time>
      </trkpt>
      <trkpt lat="45.68847" lon="2.96082">
        <ele>1026</ele>
        <time>2020-11-29T19:53:21Z</time>
      </trkpt>
      <trkpt lat="45.68802" lon="2.96169">
        <ele>1029</ele>
        <time>2020-11-29T19:53:39Z</time>
      </trkpt>
      <trkpt lat="45.68789" lon="2.9611">
        <ele>1040</ele>
        <time>2020-11-29T19:53:49Z</time>
      </trkpt>
      <trkpt lat="45.68798" lon="2.96084">
        <ele>1042</ele>
        <time>2020-11-29T19:53:54Z</time>
      </trkpt>
      <trkpt lat="45.68793" lon="2.9605">
        <ele>1043</ele>
        <time>2020-11-29T19:54:00Z</time>
      </trkpt>
      <trkpt lat="45.68786" lon="2.9604">
        <ele>1045</ele>
        <time>2020-11-29T19:54:02Z</time>
      </trkpt>
      <trkpt lat="45.68779" lon="2.96059">
        <ele>1047</ele>
        <time>2020-11-29T19:54:05Z</time>
      </trkpt>
      <trkpt lat="45.68756" lon="2.96025">
        <ele>1055</ele>
        <time>2020-11-29T19:54:13Z</time>
      </trkpt>
      <trkpt lat="45.68752" lon="2.96047">
        <ele>1056</ele>
        <time>2020-11-29T19:54:17Z</time>
      </trkpt>
      <trkpt lat="45.68705" lon="2.96026">
        <ele>1065</ele>
        <time>2020-11-29T19:54:28Z</time>
      </trkpt>
      <trkpt lat="45.68672" lon="2.96044">
        <ele>1072</ele>
        <time>2020-11-29T19:54:37Z</time>
      </trkpt>
      <trkpt lat="45.68636" lon="2.96072">
        <ele>1071</ele>
        <time>2020-11-29T19:54:46Z</time>
      </trkpt>
      <trkpt lat="45.68598" lon="2.96134">
        <ele>1073</ele>
        <time>2020-11-29T19:55:00Z</time>
      </trkpt>
      <trkpt lat="45.68598" lon="2.96237">
        <ele>1078</ele>
        <time>2020-11-29T19:55:16Z</time>
      </trkpt>
      <trkpt lat="45.68613" lon="2.96322">
        <ele>1071</ele>
        <time>2020-11-29T19:55:31Z</time>
      </trkpt>
      <trkpt lat="45.68648" lon="2.96361">
        <ele>1064</ele>
        <time>2020-11-29T19:55:41Z</time>
      </trkpt>
      <trkpt lat="45.68651" lon="2.96342">
        <ele>1066</ele>
        <time>2020-11-29T19:55:44Z</time>
      </trkpt>
      <trkpt lat="45.68651" lon="2.96273">
        <ele>1065</ele>
        <time>2020-11-29T19:55:56Z</time>
      </trkpt>
      <trkpt lat="45.68696" lon="2.96319">
        <ele>1054</ele>
        <time>2020-11-29T19:56:08Z</time>
      </trkpt>
      <trkpt lat="45.6869" lon="2.96267">
        <ele>1052</ele>
        <time>2020-11-29T19:56:17Z</time>
      </trkpt>
      <trkpt lat="45.68711" lon="2.96314">
        <ele>1048</ele>
        <time>2020-11-29T19:56:26Z</time>
      </trkpt>
      <trkpt lat="45.68751" lon="2.9633">
        <ele>1035</ele>
        <time>2020-11-29T19:56:36Z</time>
      </trkpt>
      <trkpt lat="45.68789" lon="2.96299">
        <ele>1024</ele>
        <time>2020-11-29T19:56:46Z</time>
      </trkpt>
      <trkpt lat="45.68774" lon="2.96366">
        <ele>1029</ele>
        <time>2020-11-29T19:56:58Z</time>
      </trkpt>
      <trkpt lat="45.6876" lon="2.96436">
        <ele>1032</ele>
        <time>2020-11-29T19:57:09Z</time>
      </trkpt>
      <trkpt lat="45.68753" lon="2.96459">
        <ele>1031</ele>
        <time>2020-11-29T19:57:14Z</time>
      </trkpt>
      <trkpt lat="45.687" lon="2.9649">
        <ele>1037</ele>
        <time>2020-11-29T19:57:27Z</time>
      </trkpt>
      <trkpt lat="45.68648" lon="2.96522">
        <ele>1031</ele>
        <time>2020-11-29T19:57:40Z</time>
      </trkpt>
      <trkpt lat="45.6861" lon="2.96524">
        <ele>1027</ele>
        <time>2020-11-29T19:57:49Z</time>
      </trkpt>
      <trkpt lat="45.68561" lon="2.96527">
        <ele>1019</ele>
        <time>2020-11-29T19:58:00Z</time>
      </trkpt>
      <trkpt lat="45.68538" lon="2.96522">
        <ele>1016</ele>
        <time>2020-11-29T19:58:06Z</time>
      </trkpt>
      <trkpt lat="45.68433" lon="2.96474">
        <ele>999</ele>
        <time>2020-11-29T19:58:32Z</time>
      </trkpt>
      <trkpt lat="45.68362" lon="2.96556">
        <ele>981</ele>
        <time>2020-11-29T19:58:53Z</time>
      </trkpt>
      <trkpt lat="45.68338" lon="2.96586">
        <ele>978</ele>
        <time>2020-11-29T19:59:00Z</time>
      </trkpt>
      <trkpt lat="45.68316" lon="2.96584">
        <ele>975</ele>
        <time>2020-11-29T19:59:06Z</time>
      </trkpt>
      <trkpt lat="45.6828" lon="2.96591">
        <ele>970</ele>
        <time>2020-11-29T19:59:14Z</time>
      </trkpt>
      <trkpt lat="45.68259" lon="2.96598">
        <ele>968</ele>
        <time>2020-11-29T19:59:19Z</time>
      </trkpt>
      <trkpt lat="45.68239" lon="2.96612">
        <ele>967</ele>
        <time>2020-11-29T19:59:24Z</time>
      </trkpt>
      <trkpt lat="45.68238" lon="2.96641">
        <ele>967</ele>
        <time>2020-11-29T19:59:29Z</time>
      </trkpt>
      <trkpt lat="45.68194" lon="2.96631">
        <ele>965</ele>
        <time>2020-11-29T19:59:39Z</time>
      </trkpt>
      <trkpt lat="45.68181" lon="2.96628">
        <ele>965</ele>
        <time>2020-11-29T19:59:42Z</time>
      </trkpt>
      <trkpt lat="45.68132" lon="2.96656">
        <ele>966</ele>
        <time>2020-11-29T19:59:55Z</time>
      </trkpt>
      <trkpt lat="45.68098" lon="2.96672">
        <ele>966</ele>
        <time>2020-11-29T20:00:03Z</time>
      </trkpt>
      <trkpt lat="45.68075" lon="2.96688">
        <ele>966</ele>
        <time>2020-11-29T20:00:09Z</time>
      </trkpt>
      <trkpt lat="45.68039" lon="2.96703">
        <ele>967</ele>
        <time>2020-11-29T20:00:18Z</time>
      </trkpt>
      <trkpt lat="45.68012" lon="2.96741">
        <ele>964</ele>
        <time>2020-11-29T20:00:27Z</time>
      </trkpt>
      <trkpt lat="45.68007" lon="2.96767">
        <ele>959</ele>
        <time>2020-11-29T20:00:31Z</time>
      </trkpt>
      <trkpt lat="45.68003" lon="2.96789">
        <ele>956</ele>
        <time>2020-11-29T20:00:35Z</time>
      </trkpt>
      <trkpt lat="45.67993" lon="2.96791">
        <ele>956</ele>
        <time>2020-11-29T20:00:37Z</time>
      </trkpt>
      <trkpt lat="45.67965" lon="2.96798">
        <ele>958</ele>
        <time>2020-11-29T20:00:44Z</time>
      </trkpt>
      <trkpt lat="45.67889" lon="2.96826">
        <ele>960</ele>
        <time>2020-11-29T20:01:02Z</time>
      </trkpt>
      <trkpt lat="45.678" lon="2.9685">
        <ele>959</ele>
        <time>2020-11-29T20:01:23Z</time>
      </trkpt>
      <trkpt lat="45.6774" lon="2.96845">
        <ele>960</ele>
        <time>2020-11-29T20:01:37Z</time>
      </trkpt>
      <trkpt lat="45.67627" lon="2.96811">
        <ele>960</ele>
        <time>2020-11-29T20:02:04Z</time>
      </trkpt>
      <trkpt lat="45.67549" lon="2.96804">
        <ele>955</ele>
        <time>2020-11-29T20:02:23Z</time>
      </trkpt>
      <trkpt lat="45.67501" lon="2.9678">
        <ele>953</ele>
        <time>2020-11-29T20:02:34Z</time>
      </trkpt>
      <trkpt lat="45.67435" lon="2.96759">
        <ele>947</ele>
        <time>2020-11-29T20:02:50Z</time>
      </trkpt>
      <trkpt lat="45.67405" lon="2.9675">
        <ele>946</ele>
        <time>2020-11-29T20:02:57Z</time>
      </trkpt>
      <trkpt lat="45.67371" lon="2.96738">
        <ele>945</ele>
        <time>2020-11-29T20:03:06Z</time>
      </trkpt>
      <trkpt lat="45.67119" lon="2.96792">
        <ele>943</ele>
        <time>2020-11-29T20:04:05Z</time>
      </trkpt>
      <trkpt lat="45.67066" lon="2.96788">
        <ele>943</ele>
        <time>2020-11-29T20:04:17Z</time>
      </trkpt>
      <trkpt lat="45.67036" lon="2.96759">
        <ele>942</ele>
        <time>2020-11-29T20:04:26Z</time>
      </trkpt>
      <trkpt lat="45.66986" lon="2.96704">
        <ele>941</ele>
        <time>2020-11-29T20:04:41Z</time>
      </trkpt>
      <trkpt lat="45.66946" lon="2.96678">
        <ele>938</ele>
        <time>2020-11-29T20:04:51Z</time>
      </trkpt>
      <trkpt lat="45.66924" lon="2.96655">
        <ele>937</ele>
        <time>2020-11-29T20:04:57Z</time>
      </trkpt>
      <trkpt lat="45.66875" lon="2.96624">
        <ele>936</ele>
        <time>2020-11-29T20:05:10Z</time>
      </trkpt>
      <trkpt lat="45.66855" lon="2.96601">
        <ele>935</ele>
        <time>2020-11-29T20:05:16Z</time>
      </trkpt>
      <trkpt lat="45.66792" lon="2.96537">
        <ele>935</ele>
        <time>2020-11-29T20:05:34Z</time>
      </trkpt>
      <trkpt lat="45.66752" lon="2.96503">
        <ele>937</ele>
        <time>2020-11-29T20:05:45Z</time>
      </trkpt>
      <trkpt lat="45.66717" lon="2.96487">
        <ele>942</ele>
        <time>2020-11-29T20:05:53Z</time>
      </trkpt>
      <trkpt lat="45.66688" lon="2.96504">
        <ele>944</ele>
        <time>2020-11-29T20:06:01Z</time>
      </trkpt>
      <trkpt lat="45.66668" lon="2.96549">
        <ele>940</ele>
        <time>2020-11-29T20:06:09Z</time>
      </trkpt>
      <trkpt lat="45.66647" lon="2.96598">
        <ele>937</ele>
        <time>2020-11-29T20:06:19Z</time>
      </trkpt>
      <trkpt lat="45.66637" lon="2.96629">
        <ele>936</ele>
        <time>2020-11-29T20:06:24Z</time>
      </trkpt>
      <trkpt lat="45.66727" lon="2.96677">
        <ele>928</ele>
        <time>2020-11-29T20:06:47Z</time>
      </trkpt>
      <trkpt lat="45.66804" lon="2.96741">
        <ele>926</ele>
        <time>2020-11-29T20:07:07Z</time>
      </trkpt>
      <trkpt lat="45.66905" lon="2.96873">
        <ele>927</ele>
        <time>2020-11-29T20:07:39Z</time>
      </trkpt>
      <trkpt lat="45.66944" lon="2.97079">
        <ele>927</ele>
        <time>2020-11-29T20:08:14Z</time>
      </trkpt>
      <trkpt lat="45.67049" lon="2.97178">
        <ele>922</ele>
        <time>2020-11-29T20:08:44Z</time>
      </trkpt>
      <trkpt lat="45.67193" lon="2.97161">
        <ele>920</ele>
        <time>2020-11-29T20:09:17Z</time>
      </trkpt>
      <trkpt lat="45.67304" lon="2.97225">
        <ele>915</ele>
        <time>2020-11-29T20:09:45Z</time>
      </trkpt>
      <trkpt lat="45.67271" lon="2.97333">
        <ele>910</ele>
        <time>2020-11-29T20:10:04Z</time>
      </trkpt>
      <trkpt lat="45.67385" lon="2.97363">
        <ele>910</ele>
        <time>2020-11-29T20:10:32Z</time>
      </trkpt>
      <trkpt lat="45.67472" lon="2.97427">
        <ele>909</ele>
        <time>2020-11-29T20:10:54Z</time>
      </trkpt>
      <trkpt lat="45.67558" lon="2.97472">
        <ele>904</ele>
        <time>2020-11-29T20:11:16Z</time>
      </trkpt>
      <trkpt lat="45.67709" lon="2.974">
        <ele>903</ele>
        <time>2020-11-29T20:11:53Z</time>
      </trkpt>
      <trkpt lat="45.67743" lon="2.97446">
        <ele>900</ele>
        <time>2020-11-29T20:12:04Z</time>
      </trkpt>
      <trkpt lat="45.67886" lon="2.97612">
        <ele>907</ele>
        <time>2020-11-29T20:12:47Z</time>
      </trkpt>
      <trkpt lat="45.67987" lon="2.97602">
        <ele>909</ele>
        <time>2020-11-29T20:13:11Z</time>
      </trkpt>
      <trkpt lat="45.68053" lon="2.97668">
        <ele>906</ele>
        <time>2020-11-29T20:13:29Z</time>
      </trkpt>
      <trkpt lat="45.68105" lon="2.97855">
        <ele>905</ele>
        <time>2020-11-29T20:14:02Z</time>
      </trkpt>
      <trkpt lat="45.68164" lon="2.97926">
        <ele>908</ele>
        <time>2020-11-29T20:14:20Z</time>
      </trkpt>
      <trkpt lat="45.68244" lon="2.97947">
        <ele>911</ele>
        <time>2020-11-29T20:14:39Z</time>
      </trkpt>
      <trkpt lat="45.68356" lon="2.97962">
        <ele>916</ele>
        <time>2020-11-29T20:15:05Z</time>
      </trkpt>
      <trkpt lat="45.68379" lon="2.97975">
        <ele>918</ele>
        <time>2020-11-29T20:15:11Z</time>
      </trkpt>
      <trkpt lat="45.68406" lon="2.97979">
        <ele>920</ele>
        <time>2020-11-29T20:15:18Z</time>
      </trkpt>
      <trkpt lat="45.68452" lon="2.97965">
        <ele>922</ele>
        <time>2020-11-29T20:15:29Z</time>
      </trkpt>
      <trkpt lat="45.68469" lon="2.97977">
        <ele>923</ele>
        <time>2020-11-29T20:15:33Z</time>
      </trkpt>
      <trkpt lat="45.68543" lon="2.98041">
        <ele>923</ele>
        <time>2020-11-29T20:15:53Z</time>
      </trkpt>
      <trkpt lat="45.68589" lon="2.98055">
        <ele>922</ele>
        <time>2020-11-29T20:16:04Z</time>
      </trkpt>
      <trkpt lat="45.68619" lon="2.98174">
        <ele>918</ele>
        <time>2020-11-29T20:16:25Z</time>
      </trkpt>
      <trkpt lat="45.68664" lon="2.98236">
        <ele>915</ele>
        <time>2020-11-29T20:16:39Z</time>
      </trkpt>
      <trkpt lat="45.6868" lon="2.9828">
        <ele>914</ele>
        <time>2020-11-29T20:16:47Z</time>
      </trkpt>
      <trkpt lat="45.68679" lon="2.98395">
        <ele>912</ele>
        <time>2020-11-29T20:17:06Z</time>
      </trkpt>
      <trkpt lat="45.68691" lon="2.98427">
        <ele>912</ele>
        <time>2020-11-29T20:17:12Z</time>
      </trkpt>
      <trkpt lat="45.68744" lon="2.98484">
        <ele>912</ele>
        <time>2020-11-29T20:17:28Z</time>
      </trkpt>
      <trkpt lat="45.68765" lon="2.9855">
        <ele>911</ele>
        <time>2020-11-29T20:17:39Z</time>
      </trkpt>
      <trkpt lat="45.68803" lon="2.98596">
        <ele>911</ele>
        <time>2020-11-29T20:17:51Z</time>
      </trkpt>
      <trkpt lat="45.6883" lon="2.98659">
        <ele>915</ele>
        <time>2020-11-29T20:18:03Z</time>
      </trkpt>
      <trkpt lat="45.68893" lon="2.98691">
        <ele>918</ele>
        <time>2020-11-29T20:18:19Z</time>
      </trkpt>
      <trkpt lat="45.68928" lon="2.98672">
        <ele>920</ele>
        <time>2020-11-29T20:18:27Z</time>
      </trkpt>
      <trkpt lat="45.6901" lon="2.98756">
        <ele>918</ele>
        <time>2020-11-29T20:18:51Z</time>
      </trkpt>
      <trkpt lat="45.69025" lon="2.98798">
        <ele>916</ele>
        <time>2020-11-29T20:18:59Z</time>
      </trkpt>
      <trkpt lat="45.69024" lon="2.98819">
        <ele>915</ele>
        <time>2020-11-29T20:19:02Z</time>
      </trkpt>
      <trkpt lat="45.69007" lon="2.98878">
        <ele>913</ele>
        <time>2020-11-29T20:19:13Z</time>
      </trkpt>
      <trkpt lat="45.68978" lon="2.98902">
        <ele>910</ele>
        <time>2020-11-29T20:19:20Z</time>
      </trkpt>
      <trkpt lat="45.68909" lon="2.9891">
        <ele>907</ele>
        <time>2020-11-29T20:19:37Z</time>
      </trkpt>
      <trkpt lat="45.6881" lon="2.98948">
        <ele>909</ele>
        <time>2020-11-29T20:20:00Z</time>
      </trkpt>
      <trkpt lat="45.68716" lon="2.98968">
        <ele>913</ele>
        <time>2020-11-29T20:20:23Z</time>
      </trkpt>
      <trkpt lat="45.6866" lon="2.99008">
        <ele>911</ele>
        <time>2020-11-29T20:20:37Z</time>
      </trkpt>
      <trkpt lat="45.68622" lon="2.99033">
        <ele>909</ele>
        <time>2020-11-29T20:20:47Z</time>
      </trkpt>
      <trkpt lat="45.68593" lon="2.99053">
        <ele>906</ele>
        <time>2020-11-29T20:20:55Z</time>
      </trkpt>
      <trkpt lat="45.68559" lon="2.99053">
        <ele>905</ele>
        <time>2020-11-29T20:21:03Z</time>
      </trkpt>
      <trkpt lat="45.68543" lon="2.99069">
        <ele>904</ele>
        <time>2020-11-29T20:21:07Z</time>
      </trkpt>
      <trkpt lat="45.68516" lon="2.99146">
        <ele>898</ele>
        <time>2020-11-29T20:21:21Z</time>
      </trkpt>
      <trkpt lat="45.68496" lon="2.99163">
        <ele>896</ele>
        <time>2020-11-29T20:21:27Z</time>
      </trkpt>
      <trkpt lat="45.68453" lon="2.99195">
        <ele>891</ele>
        <time>2020-11-29T20:21:38Z</time>
      </trkpt>
      <trkpt lat="45.68423" lon="2.99257">
        <ele>887</ele>
        <time>2020-11-29T20:21:50Z</time>
      </trkpt>
      <trkpt lat="45.68376" lon="2.99316">
        <ele>883</ele>
        <time>2020-11-29T20:22:05Z</time>
      </trkpt>
      <trkpt lat="45.68374" lon="2.99379">
        <ele>883</ele>
        <time>2020-11-29T20:22:15Z</time>
      </trkpt>
      <trkpt lat="45.68379" lon="2.99437">
        <ele>883</ele>
        <time>2020-11-29T20:22:25Z</time>
      </trkpt>
      <trkpt lat="45.68386" lon="2.99491">
        <ele>882</ele>
        <time>2020-11-29T20:22:34Z</time>
      </trkpt>
      <trkpt lat="45.68399" lon="2.99542">
        <ele>881</ele>
        <time>2020-11-29T20:22:42Z</time>
      </trkpt>
      <trkpt lat="45.68409" lon="2.99594">
        <ele>882</ele>
        <time>2020-11-29T20:22:51Z</time>
      </trkpt>
      <trkpt lat="45.68418" lon="2.99616">
        <ele>882</ele>
        <time>2020-11-29T20:22:55Z</time>
      </trkpt>
      <trkpt lat="45.68413" lon="2.99679">
        <ele>883</ele>
        <time>2020-11-29T20:23:06Z</time>
      </trkpt>
      <trkpt lat="45.68388" lon="2.99713">
        <ele>881</ele>
        <time>2020-11-29T20:23:14Z</time>
      </trkpt>
      <trkpt lat="45.68355" lon="2.99735">
        <ele>880</ele>
        <time>2020-11-29T20:23:22Z</time>
      </trkpt>
      <trkpt lat="45.68327" lon="2.9976">
        <ele>879</ele>
        <time>2020-11-29T20:23:30Z</time>
      </trkpt>
      <trkpt lat="45.68275" lon="2.99803">
        <ele>879</ele>
        <time>2020-11-29T20:23:44Z</time>
      </trkpt>
      <trkpt lat="45.68212" lon="2.99834">
        <ele>881</ele>
        <time>2020-11-29T20:24:00Z</time>
      </trkpt>
      <trkpt lat="45.68202" lon="2.9987">
        <ele>881</ele>
        <time>2020-11-29T20:24:06Z</time>
      </trkpt>
      <trkpt lat="45.68157" lon="2.99883">
        <ele>881</ele>
        <time>2020-11-29T20:24:17Z</time>
      </trkpt>
      <trkpt lat="45.67988" lon="2.99877">
        <ele>884</ele>
        <time>2020-11-29T20:24:56Z</time>
      </trkpt>
      <trkpt lat="45.67893" lon="2.99796">
        <ele>886</ele>
        <time>2020-11-29T20:25:22Z</time>
      </trkpt>
      <trkpt lat="45.67848" lon="2.99778">
        <ele>885</ele>
        <time>2020-11-29T20:25:33Z</time>
      </trkpt>
      <trkpt lat="45.67808" lon="2.99789">
        <ele>886</ele>
        <time>2020-11-29T20:25:42Z</time>
      </trkpt>
      <trkpt lat="45.67783" lon="2.99803">
        <ele>886</ele>
        <time>2020-11-29T20:25:49Z</time>
      </trkpt>
      <trkpt lat="45.67699" lon="2.99803">
        <ele>880</ele>
        <time>2020-11-29T20:26:08Z</time>
      </trkpt>
      <trkpt lat="45.67669" lon="2.99825">
        <ele>879</ele>
        <time>2020-11-29T20:26:16Z</time>
      </trkpt>
      <trkpt lat="45.67626" lon="2.999">
        <ele>876</ele>
        <time>2020-11-29T20:26:32Z</time>
      </trkpt>
      <trkpt lat="45.6758" lon="2.99952">
        <ele>873</ele>
        <time>2020-11-29T20:26:46Z</time>
      </trkpt>
      <trkpt lat="45.67514" lon="2.99976">
        <ele>866</ele>
        <time>2020-11-29T20:27:02Z</time>
      </trkpt>
      <trkpt lat="45.6744" lon="3.0004">
        <ele>860</ele>
        <time>2020-11-29T20:27:22Z</time>
      </trkpt>
      <trkpt lat="45.67359" lon="3.00092">
        <ele>852</ele>
        <time>2020-11-29T20:27:42Z</time>
      </trkpt>
      <trkpt lat="45.67325" lon="3.00174">
        <ele>847</ele>
        <time>2020-11-29T20:27:58Z</time>
      </trkpt>
      <trkpt lat="45.67328" lon="3.00256">
        <ele>838</ele>
        <time>2020-11-29T20:28:11Z</time>
      </trkpt>
      <trkpt lat="45.67353" lon="3.00319">
        <ele>836</ele>
        <time>2020-11-29T20:28:23Z</time>
      </trkpt>
      <trkpt lat="45.67353" lon="3.00395">
        <ele>828</ele>
        <time>2020-11-29T20:28:36Z</time>
      </trkpt>
      <trkpt lat="45.6734" lon="3.0041">
        <ele>824</ele>
        <time>2020-11-29T20:28:40Z</time>
      </trkpt>
      <trkpt lat="45.67328" lon="3.00371">
        <ele>825</ele>
        <time>2020-11-29T20:28:46Z</time>
      </trkpt>
      <trkpt lat="45.67285" lon="3.00313">
        <ele>826</ele>
        <time>2020-11-29T20:29:00Z</time>
      </trkpt>
      <trkpt lat="45.67236" lon="3.00362">
        <ele>820</ele>
        <time>2020-11-29T20:29:14Z</time>
      </trkpt>
      <trkpt lat="45.67179" lon="3.00283">
        <ele>821</ele>
        <time>2020-11-29T20:29:33Z</time>
      </trkpt>
      <trkpt lat="45.67135" lon="3.00177">
        <ele>825</ele>
        <time>2020-11-29T20:29:53Z</time>
      </trkpt>
      <trkpt lat="45.67094" lon="3.00049">
        <ele>831</ele>
        <time>2020-11-29T20:30:16Z</time>
      </trkpt>
      <trkpt lat="45.67092" lon="2.9994">
        <ele>837</ele>
        <time>2020-11-29T20:30:34Z</time>
      </trkpt>
      <trkpt lat="45.67001" lon="3.0004">
        <ele>834</ele>
        <time>2020-11-29T20:31:00Z</time>
      </trkpt>
      <trkpt lat="45.66978" lon="3.00038">
        <ele>833</ele>
        <time>2020-11-29T20:31:06Z</time>
      </trkpt>
      <trkpt lat="45.66915" lon="2.99919">
        <ele>839</ele>
        <time>2020-11-29T20:31:30Z</time>
      </trkpt>
      <trkpt lat="45.66798" lon="2.99957">
        <ele>836</ele>
        <time>2020-11-29T20:31:58Z</time>
      </trkpt>
      <trkpt lat="45.66769" lon="2.99948">
        <ele>837</ele>
        <time>2020-11-29T20:32:05Z</time>
      </trkpt>
      <trkpt lat="45.66742" lon="2.99915">
        <ele>839</ele>
        <time>2020-11-29T20:32:13Z</time>
      </trkpt>
      <trkpt lat="45.66701" lon="2.99895">
        <ele>839</ele>
        <time>2020-11-29T20:32:24Z</time>
      </trkpt>
      <trkpt lat="45.66691" lon="2.99957">
        <ele>835</ele>
        <time>2020-11-29T20:32:34Z</time>
      </trkpt>
      <trkpt lat="45.66664" lon="2.99975">
        <ele>833</ele>
        <time>2020-11-29T20:32:41Z</time>
      </trkpt>
      <trkpt lat="45.66689" lon="3.00049">
        <ele>830</ele>
        <time>2020-11-29T20:32:54Z</time>
      </trkpt>
      <trkpt lat="45.6667" lon="3.00056">
        <ele>830</ele>
        <time>2020-11-29T20:32:59Z</time>
      </trkpt>
      <trkpt lat="45.6662" lon="3.00182">
        <ele>833</ele>
        <time>2020-11-29T20:33:23Z</time>
      </trkpt>
      <trkpt lat="45.66575" lon="3.00198">
        <ele>838</ele>
        <time>2020-11-29T20:33:33Z</time>
      </trkpt>
      <trkpt lat="45.66551" lon="3.00242">
        <ele>844</ele>
        <time>2020-11-29T20:33:42Z</time>
      </trkpt>
    </trkseg>
  </trk>
</gpx>